createdAt,value
2023-01-11T00:01:48.654Z,6.10
2023-01-11T00:05:10.186Z,6.20
2023-01-11T00:08:31.756Z,6.20
2023-01-11T00:11:54.671Z,6.30
2023-01-11T00:15:16.379Z,6.30
2023-01-11T00:18:38.456Z,6.30
2023-01-11T00:22:00.093Z,6.30
2023-01-11T00:25:21.659Z,6.30
2023-01-11T00:28:44.625Z,6.30
2023-01-11T00:32:06.183Z,6.30
2023-01-11T00:35:28.135Z,6.40
2023-01-11T00:38:49.690Z,6.40
2023-01-11T00:42:11.650Z,6.50
2023-01-11T00:45:34.588Z,6.50
2023-01-11T00:48:56.223Z,6.60
2023-01-11T00:52:17.837Z,6.60
2023-01-11T00:55:39.423Z,6.70
2023-01-11T00:59:01.019Z,6.70
2023-01-11T01:02:24.012Z,6.60
2023-01-11T01:05:45.651Z,6.70
2023-01-11T01:09:07.221Z,6.70
2023-01-11T01:12:28.801Z,6.80
2023-01-11T01:15:56.252Z,6.90
2023-01-11T01:19:19.418Z,6.90
2023-01-11T01:22:41.180Z,6.90
2023-01-11T01:26:03.107Z,6.80
2023-01-11T01:29:24.910Z,6.70
2023-01-11T01:32:46.615Z,6.80
2023-01-11T01:36:09.870Z,6.70
2023-01-11T01:39:31.540Z,6.70
2023-01-11T01:42:53.678Z,6.70
2023-01-11T01:46:15.614Z,6.70
2023-01-11T01:49:37.407Z,6.70
2023-01-11T01:53:02.433Z,6.70
2023-01-11T01:56:25.926Z,6.70
2023-01-11T01:59:49.184Z,6.70
2023-01-11T02:03:13.830Z,6.60
2023-01-11T02:06:35.457Z,6.60
2023-01-11T02:09:59.544Z,6.70
2023-01-11T02:13:21.403Z,6.60
2023-01-11T02:16:43.034Z,6.70
2023-01-11T02:20:13.751Z,6.70
2023-01-11T02:23:44.443Z,6.80
2023-01-11T02:27:20.876Z,6.90
2023-01-11T02:30:47.797Z,6.90
2023-01-11T02:34:16.418Z,6.90
2023-01-11T02:37:41.699Z,6.90
2023-01-11T02:41:05.982Z,6.90
2023-01-11T02:44:28.752Z,6.80
2023-01-11T02:47:55.184Z,6.70
2023-01-11T02:51:19.797Z,6.60
2023-01-11T02:54:43.032Z,6.50
2023-01-11T02:58:06.571Z,6.40
2023-01-11T03:01:28.176Z,6.30
2023-01-11T03:04:51.166Z,6.20
2023-01-11T03:08:27.600Z,6.20
2023-01-11T03:12:01.901Z,6.20
2023-01-11T03:15:29.872Z,6.10
2023-01-11T03:19:01.969Z,6.10
2023-01-11T03:22:26.764Z,6.00
2023-01-11T03:25:54.259Z,6.10
2023-01-11T03:29:19.372Z,6.20
2023-01-11T03:32:44.527Z,6.20
2023-01-11T03:36:09.329Z,6.20
2023-01-11T03:39:34.321Z,6.20
2023-01-11T03:42:58.057Z,6.40
2023-01-11T03:46:21.573Z,6.60
2023-01-11T03:49:45.068Z,6.70
2023-01-11T03:53:07.119Z,6.70
2023-01-11T03:56:33.756Z,6.70
2023-01-11T03:59:55.401Z,6.70
2023-01-11T04:03:16.943Z,6.70
2023-01-11T04:06:38.641Z,6.60
2023-01-11T04:10:00.265Z,6.60
2023-01-11T04:13:23.282Z,6.60
2023-01-11T04:16:44.854Z,6.60
2023-01-11T04:20:07.117Z,6.70
2023-01-11T04:23:28.716Z,6.80
2023-01-11T04:26:50.433Z,6.90
2023-01-11T04:30:13.683Z,6.90
2023-01-11T04:33:35.246Z,7.00
2023-01-11T04:36:56.906Z,7.00
2023-01-11T04:40:18.614Z,7.20
2023-01-11T04:43:40.391Z,7.20
2023-01-11T04:47:03.287Z,7.20
2023-01-11T04:50:25.102Z,7.20
2023-01-11T04:53:47.373Z,7.20
2023-01-11T04:57:10.649Z,7.20
2023-01-11T05:00:32.195Z,7.10
2023-01-11T05:03:55.154Z,7.20
2023-01-11T05:07:16.709Z,7.20
2023-01-11T05:10:38.249Z,7.20
2023-01-11T05:13:59.823Z,7.20
2023-01-11T05:17:21.386Z,7.20
2023-01-11T05:20:48.522Z,7.10
2023-01-11T05:24:11.870Z,7.00
2023-01-11T05:27:33.424Z,6.80
2023-01-11T05:30:54.994Z,6.60
2023-01-11T05:34:16.907Z,6.50
2023-01-11T05:37:39.783Z,6.40
2023-01-11T05:41:02.232Z,6.40
2023-01-11T05:44:23.810Z,6.40
2023-01-11T05:47:45.390Z,6.40
2023-01-11T05:51:07.178Z,6.30
2023-01-11T05:54:30.050Z,6.30
2023-01-11T05:57:51.598Z,6.40
2023-01-11T06:01:13.192Z,6.40
2023-01-11T06:04:34.812Z,6.50
2023-01-11T06:07:56.357Z,6.50
2023-01-11T06:11:19.291Z,6.50
2023-01-11T06:14:40.880Z,6.40
2023-01-11T06:18:02.441Z,6.40
2023-01-11T06:21:23.983Z,6.40
2023-01-11T06:24:45.581Z,6.30
2023-01-11T06:28:08.515Z,6.20
2023-01-11T06:31:30.066Z,6.20
2023-01-11T06:34:51.766Z,6.10
2023-01-11T06:38:14.512Z,6.20
2023-01-11T06:41:36.084Z,6.20
2023-01-11T06:44:58.993Z,6.20
2023-01-11T06:48:21.220Z,6.20
2023-01-11T06:51:42.830Z,6.20
2023-01-11T06:55:04.842Z,6.00
2023-01-11T06:58:26.733Z,5.90
2023-01-11T07:01:49.842Z,5.90
2023-01-11T07:05:11.843Z,5.90
2023-01-11T07:08:33.450Z,5.90
2023-01-11T07:11:55.081Z,5.80
2023-01-11T07:15:16.759Z,5.90
2023-01-11T07:18:39.713Z,6.00
2023-01-11T07:22:01.305Z,6.20
2023-01-11T07:25:22.876Z,6.40
2023-01-11T07:28:44.461Z,6.50
2023-01-11T07:32:06.221Z,6.70
2023-01-11T07:35:29.197Z,6.80
2023-01-11T07:38:50.788Z,6.90
2023-01-11T07:42:14.599Z,6.90
2023-01-11T07:45:45.453Z,7.00
2023-01-11T07:49:07.889Z,7.20
2023-01-11T07:52:30.770Z,7.40
2023-01-11T07:55:52.393Z,7.60
2023-01-11T07:59:13.965Z,7.70
2023-01-11T08:02:35.607Z,7.80
2023-01-11T08:05:57.283Z,7.90
2023-01-11T08:09:20.235Z,8.10
2023-01-11T08:12:42.299Z,8.10
2023-01-11T08:16:04.198Z,8.20
2023-01-11T08:19:25.812Z,8.30
2023-01-11T08:22:47.420Z,8.40
2023-01-11T08:26:10.340Z,8.50
2023-01-11T08:29:31.891Z,8.50
2023-01-11T08:32:53.491Z,8.60
2023-01-11T08:36:15.057Z,8.60
2023-01-11T08:39:36.591Z,8.70
2023-01-11T08:42:59.586Z,8.70
2023-01-11T08:46:21.186Z,8.70
2023-01-11T08:49:42.767Z,8.70
2023-01-11T08:53:04.345Z,8.70
2023-01-11T08:56:25.897Z,8.70
2023-01-11T08:59:48.988Z,8.70
2023-01-11T09:03:10.854Z,8.70
2023-01-11T09:06:32.570Z,8.70
2023-01-11T09:09:54.160Z,8.70
2023-01-11T09:13:15.750Z,8.80
2023-01-11T09:16:38.649Z,8.80
2023-01-11T09:20:00.648Z,8.90
2023-01-11T09:23:22.670Z,9.00
2023-01-11T09:26:44.437Z,9.10
2023-01-11T09:30:06.582Z,9.20
2023-01-11T09:33:37.130Z,9.30
2023-01-11T09:36:58.669Z,9.40
2023-01-11T09:40:21.485Z,9.40
2023-01-11T09:43:46.577Z,9.60
2023-01-11T09:47:13.884Z,9.60
2023-01-11T09:50:40.641Z,9.70
2023-01-11T09:54:04.648Z,9.70
2023-01-11T09:57:37.316Z,9.80
2023-01-11T10:01:04.852Z,9.90
2023-01-11T10:04:45.018Z,10.00
2023-01-11T10:18:23.801Z,9.90
2023-01-11T10:19:42.170Z,9.90
2023-01-11T10:23:09.194Z,9.80
2023-01-11T10:26:34.799Z,9.80
2023-01-11T10:30:00.869Z,9.80
2023-01-11T10:33:30.786Z,9.80
2023-01-11T10:37:08.990Z,9.80
2023-01-11T10:40:42.167Z,9.80
2023-01-11T10:44:14.523Z,9.80
2023-01-11T10:47:40.317Z,9.90
2023-01-11T10:51:09.007Z,10.00
2023-01-11T10:54:33.406Z,10.10
2023-01-11T10:58:02.783Z,10.30
2023-01-11T11:01:34.391Z,10.40
2023-01-11T11:05:09.854Z,10.60
2023-01-11T11:08:37.583Z,10.60
2023-01-11T11:12:05.337Z,10.80
2023-01-11T11:15:30.484Z,10.80
2023-01-11T11:18:55.268Z,10.80
2023-01-11T11:22:17.058Z,10.80
2023-01-11T11:25:43.395Z,10.90
2023-01-11T11:29:06.180Z,10.80
2023-01-11T11:32:28.848Z,10.80
2023-01-11T11:35:56.670Z,10.80
2023-01-11T11:39:20.535Z,10.90
2023-01-11T11:42:43.194Z,10.90
2023-01-11T11:46:05.982Z,11.00
2023-01-11T11:49:28.505Z,11.10
2023-01-11T11:52:52.717Z,11.10
2023-01-11T11:56:16.252Z,11.20
2023-01-11T11:59:37.976Z,11.20
2023-01-11T12:03:01.657Z,11.20
2023-01-11T12:06:24.107Z,11.20
2023-01-11T12:09:50.214Z,11.20
2023-01-11T12:13:27.742Z,11.10
2023-01-11T12:16:51.518Z,11.10
2023-01-11T12:20:34.039Z,11.00
2023-01-11T12:24:09.337Z,11.10
2023-01-11T12:27:36.743Z,11.00
2023-01-11T12:31:02.600Z,10.90
2023-01-11T12:34:34.126Z,10.80
2023-01-11T12:38:04.932Z,10.80
2023-01-11T12:41:38.423Z,10.80
2023-01-11T12:45:08.145Z,10.90
2023-01-11T12:48:40.228Z,10.90
2023-01-11T12:52:12.398Z,10.90
2023-01-11T12:55:37.829Z,10.90
2023-01-11T12:59:05.434Z,10.80
2023-01-11T13:02:34.478Z,10.80
2023-01-11T13:06:01.208Z,10.70
2023-01-11T13:09:27.783Z,10.60
2023-01-11T13:12:50.601Z,10.50
2023-01-11T13:16:16.327Z,10.40
2023-01-11T13:19:43.721Z,10.30
2023-01-11T13:23:13.254Z,10.30
2023-01-11T13:26:35.798Z,10.30
2023-01-11T13:29:59.983Z,10.30
2023-01-11T13:33:22.581Z,10.20
2023-01-11T13:36:47.576Z,10.30
2023-01-11T13:40:15.649Z,10.20
2023-01-11T13:43:39.661Z,10.20
2023-01-11T13:47:04.728Z,10.20
2023-01-11T13:50:30.638Z,10.20
2023-01-11T13:53:56.029Z,10.20
2023-01-11T13:57:21.807Z,10.20
2023-01-11T14:00:45.794Z,10.30
2023-01-11T14:04:10.603Z,10.20
2023-01-11T14:07:38.596Z,10.10
2023-01-11T14:11:08.600Z,10.00
2023-01-11T14:14:41.703Z,10.00
2023-01-11T14:18:10.229Z,9.90
2023-01-11T14:21:34.745Z,10.00
2023-01-11T14:24:58.197Z,9.90
2023-01-11T14:28:30.699Z,9.80
2023-01-11T14:32:05.069Z,9.80
2023-01-11T14:35:37.822Z,9.80
2023-01-11T14:39:20.356Z,9.80
2023-01-11T14:42:50.941Z,9.90
2023-01-11T14:46:25.885Z,9.90
2023-01-11T14:49:54.379Z,9.90
2023-01-11T14:53:16.883Z,9.90
2023-01-11T14:56:49.105Z,9.90
2023-01-11T15:00:29.194Z,9.80
2023-01-11T15:03:56.293Z,9.70
2023-01-11T15:07:22.498Z,9.60
2023-01-11T15:10:50.090Z,9.50
2023-01-11T15:14:23.423Z,9.50
2023-01-11T15:17:45.456Z,9.50
2023-01-11T15:21:13.787Z,9.40
2023-01-11T15:24:36.665Z,9.40
2023-01-11T15:27:59.817Z,9.40
2023-01-11T15:31:28.407Z,9.20
2023-01-11T15:34:50.035Z,9.00
2023-01-11T15:38:16.683Z,8.90
2023-01-11T15:41:43.047Z,8.80
2023-01-11T15:45:18.644Z,8.80
2023-01-11T15:48:48.938Z,8.70
2023-01-11T15:52:19.381Z,8.70
2023-01-11T15:56:02.003Z,8.60
2023-01-11T15:59:33.849Z,8.60
2023-01-11T16:03:09.628Z,8.50
2023-01-11T16:06:41.752Z,8.50
2023-01-11T16:10:12.008Z,8.50
2023-01-11T16:13:42.236Z,8.40
2023-01-11T16:17:10.879Z,8.40
2023-01-11T16:20:32.499Z,8.40
2023-01-11T16:23:55.218Z,8.40
2023-01-11T16:27:20.170Z,8.40
2023-01-11T16:30:41.792Z,8.40
2023-01-11T16:34:07.360Z,8.40
2023-01-11T16:37:31.424Z,8.30
2023-01-11T16:40:53.887Z,8.40
2023-01-11T16:44:20.471Z,8.40
2023-01-11T16:47:42.079Z,8.30
2023-01-11T16:51:06.383Z,8.20
2023-01-11T16:54:30.189Z,8.20
2023-01-11T16:57:53.549Z,8.10
2023-01-11T17:01:15.326Z,8.10
2023-01-11T17:04:38.005Z,8.10
2023-01-11T17:08:03.781Z,8.00
2023-01-11T17:11:27.502Z,8.00
2023-01-11T17:15:03.554Z,7.90
2023-01-11T17:18:25.198Z,7.90
2023-01-11T17:21:48.050Z,7.80
2023-01-11T17:25:17.441Z,7.70
2023-01-11T17:28:39.078Z,7.70
2023-01-11T17:32:02.292Z,7.70
2023-01-11T17:35:24.705Z,7.70
2023-01-11T17:38:46.367Z,7.70
2023-01-11T17:42:10.776Z,7.70
2023-01-11T17:45:32.579Z,7.70
2023-01-11T17:48:55.192Z,7.70
2023-01-11T17:52:19.963Z,7.70
2023-01-11T17:55:49.433Z,7.80
2023-01-11T17:59:19.254Z,7.80
2023-01-11T18:02:40.929Z,7.80
2023-01-11T18:06:08.378Z,8.00
2023-01-11T18:09:31.050Z,8.00
2023-01-11T18:12:52.977Z,8.00
2023-01-11T18:16:19.492Z,8.10
2023-01-11T18:19:42.301Z,8.10
2023-01-11T18:23:14.864Z,8.10
2023-01-11T18:26:37.037Z,8.00
2023-01-11T18:30:02.380Z,8.00
2023-01-11T18:33:26.190Z,8.00
2023-01-11T18:36:47.782Z,7.90
2023-01-11T18:40:10.913Z,7.90
2023-01-11T18:43:32.558Z,7.80
2023-01-11T18:46:54.191Z,7.70
2023-01-11T18:50:19.538Z,7.60
2023-01-11T18:53:41.361Z,7.50
2023-01-11T18:57:03.025Z,7.50
2023-01-11T19:00:24.609Z,7.40
2023-01-11T19:03:46.382Z,7.30
2023-01-11T19:07:09.871Z,7.20
2023-01-11T19:10:31.606Z,7.10
2023-01-11T19:13:53.190Z,7.10
2023-01-11T19:17:14.877Z,7.10
2023-01-11T19:20:36.894Z,7.20
2023-01-11T19:23:59.855Z,7.30
2023-01-11T19:27:21.518Z,7.40
2023-01-11T19:30:43.168Z,7.50
2023-01-11T19:34:04.836Z,7.50
2023-01-11T19:37:26.478Z,7.60
2023-01-11T19:40:50.543Z,7.50
2023-01-11T19:44:12.524Z,7.40
2023-01-11T19:47:35.331Z,7.20
2023-01-11T19:51:02.799Z,7.10
2023-01-11T19:54:24.694Z,6.90
2023-01-11T19:57:47.654Z,6.80
2023-01-11T20:01:09.835Z,6.70
2023-01-11T20:04:31.650Z,6.60
2023-01-11T20:07:53.275Z,6.60
2023-01-11T20:11:15.321Z,6.60
2023-01-11T20:14:38.294Z,6.50
2023-01-11T20:18:00.585Z,6.40
2023-01-11T20:21:22.934Z,6.30
2023-01-11T20:24:44.552Z,6.30
2023-01-11T20:28:09.093Z,6.30
2023-01-11T20:31:32.512Z,6.30
2023-01-11T20:34:54.232Z,6.30
2023-01-11T20:38:16.028Z,6.30
2023-01-11T20:41:37.898Z,6.30
2023-01-11T20:44:59.513Z,6.30
2023-01-11T20:48:22.616Z,6.20
2023-01-11T20:51:46.707Z,6.20
2023-01-11T20:55:09.099Z,6.20
2023-01-11T20:58:30.772Z,6.10
2023-01-11T21:01:52.423Z,6.10
2023-01-11T21:05:15.617Z,6.10
2023-01-11T21:08:37.592Z,6.10
2023-01-11T21:11:59.231Z,6.10
2023-01-11T21:15:20.840Z,6.00
2023-01-11T21:18:43.480Z,6.00
2023-01-11T21:22:06.470Z,6.00
2023-01-11T21:25:28.058Z,6.00
2023-01-11T21:28:50.734Z,5.90
2023-01-11T21:32:12.342Z,5.90
2023-01-11T21:35:33.973Z,5.90
2023-01-11T21:38:57.910Z,5.80
2023-01-11T21:42:19.570Z,5.80
2023-01-11T21:45:41.155Z,5.90
2023-01-11T21:49:02.831Z,5.80
2023-01-11T21:52:24.474Z,5.80
2023-01-11T21:55:47.838Z,5.90
2023-01-11T21:59:09.599Z,5.80
2023-01-11T22:02:31.178Z,5.80
2023-01-11T22:05:52.774Z,5.70
2023-01-11T22:09:14.503Z,5.80
2023-01-11T22:12:37.460Z,5.80
2023-01-11T22:15:59.430Z,5.70
2023-01-11T22:19:21.106Z,5.70
2023-01-11T22:22:42.740Z,5.70
2023-01-11T22:26:04.884Z,5.60
2023-01-11T22:29:29.768Z,5.60
2023-01-11T22:32:51.627Z,5.50
2023-01-11T22:36:13.251Z,5.50
2023-01-11T22:39:34.888Z,5.60
2023-01-11T22:42:56.489Z,5.70
2023-01-11T22:46:20.456Z,5.70
2023-01-11T22:49:42.050Z,5.80
2023-01-11T22:53:03.645Z,5.80
2023-01-11T22:56:26.313Z,5.80
2023-01-11T22:59:47.927Z,5.80
2023-01-11T23:03:11.035Z,5.80
2023-01-11T23:06:33.379Z,5.80
2023-01-11T23:09:54.951Z,5.80
2023-01-11T23:13:16.534Z,5.70
2023-01-11T23:16:38.427Z,5.60
2023-01-11T23:20:01.432Z,5.60
2023-01-11T23:23:26.379Z,5.60
2023-01-11T23:26:48.002Z,5.50
2023-01-11T23:30:10.326Z,5.50
2023-01-11T23:33:31.903Z,5.50
2023-01-11T23:36:54.817Z,5.60
2023-01-11T23:40:16.471Z,5.60
2023-01-11T23:43:38.349Z,5.60
2023-01-11T23:46:59.974Z,5.50
2023-01-11T23:50:21.598Z,5.40
2023-01-11T23:53:44.517Z,5.30
2023-01-11T23:57:06.127Z,5.10
